sensor_id;sensor_type;location;lat;lon;timestamp;P1;durP1;ratioP1;P2;durP2;ratioP2
74335;SDS011;62755;-33.398;-70.572;2023-06-14T00:01:50;57.65;;;26.33;;
74335;SDS011;62755;-33.398;-70.572;2023-06-14T00:04:38;48.50;;;24.27;;
74335;SDS011;62755;-33.398;-70.572;2023-06-14T00:07:34;59.15;;;23.63;;
74335;SDS011;62755;-33.398;-70.572;2023-06-14T00:10:22;41.65;;;21.88;;
74335;SDS011;62755;-33.398;-70.572;2023-06-14T00:13:10;38.67;;;20.83;;
74335;SDS011;62755;-33.398;-70.572;2023-06-14T00:15:59;42.67;;;17.80;;
74335;SDS011;62755;-33.398;-70.572;2023-06-14T00:18:52;38.42;;;16.30;;
74335;SDS011;62755;-33.398;-70.572;2023-06-14T00:21:40;33.25;;;16.05;;
74335;SDS011;62755;-33.398;-70.572;2023-06-14T00:24:29;52.47;;;17.80;;
74335;SDS011;62755;-33.398;-70.572;2023-06-14T00:27:17;38.28;;;16.67;;
74335;SDS011;62755;-33.398;-70.572;2023-06-14T00:30:06;57.47;;;17.75;;
74335;SDS011;62755;-33.398;-70.572;2023-06-14T00:32:54;36.05;;;16.25;;
74335;SDS011;62755;-33.398;-70.572;2023-06-14T00:35:44;42.00;;;17.33;;
74335;SDS011;62755;-33.398;-70.572;2023-06-14T00:38:32;29.55;;;15.18;;
74335;SDS011;62755;-33.398;-70.572;2023-06-14T00:41:21;35.35;;;16.95;;
74335;SDS011;62755;-33.398;-70.572;2023-06-14T00:44:09;35.08;;;13.85;;
74335;SDS011;62755;-33.398;-70.572;2023-06-14T00:46:58;26.83;;;12.88;;
74335;SDS011;62755;-33.398;-70.572;2023-06-14T00:49:47;16.38;;;7.88;;
74335;SDS011;62755;-33.398;-70.572;2023-06-14T00:52:37;15.65;;;6.57;;
74335;SDS011;62755;-33.398;-70.572;2023-06-14T00:55:25;18.90;;;8.15;;
74335;SDS011;62755;-33.398;-70.572;2023-06-14T00:58:13;21.30;;;10.48;;
74335;SDS011;62755;-33.398;-70.572;2023-06-14T01:01:02;20.48;;;10.82;;
74335;SDS011;62755;-33.398;-70.572;2023-06-14T01:03:51;14.07;;;8.68;;
74335;SDS011;62755;-33.398;-70.572;2023-06-14T01:06:40;16.13;;;8.63;;
74335;SDS011;62755;-33.398;-70.572;2023-06-14T01:09:33;14.90;;;9.18;;
74335;SDS011;62755;-33.398;-70.572;2023-06-14T01:12:24;30.40;;;14.00;;
74335;SDS011;62755;-33.398;-70.572;2023-06-14T01:15:17;41.08;;;17.90;;
74335;SDS011;62755;-33.398;-70.572;2023-06-14T01:18:06;30.05;;;16.58;;
74335;SDS011;62755;-33.398;-70.572;2023-06-14T01:21:02;41.38;;;18.20;;
74335;SDS011;62755;-33.398;-70.572;2023-06-14T01:23:53;47.25;;;24.45;;
74335;SDS011;62755;-33.398;-70.572;2023-06-14T01:26:43;51.47;;;28.08;;
74335;SDS011;62755;-33.398;-70.572;2023-06-14T01:29:32;39.85;;;22.08;;
74335;SDS011;62755;-33.398;-70.572;2023-06-14T01:32:22;58.42;;;32.00;;
74335;SDS011;62755;-33.398;-70.572;2023-06-14T01:35:11;66.38;;;33.83;;
74335;SDS011;62755;-33.398;-70.572;2023-06-14T01:37:59;69.85;;;36.03;;
74335;SDS011;62755;-33.398;-70.572;2023-06-14T01:40:50;68.07;;;37.50;;
74335;SDS011;62755;-33.398;-70.572;2023-06-14T01:43:38;68.82;;;36.05;;
74335;SDS011;62755;-33.398;-70.572;2023-06-14T01:46:27;82.05;;;39.35;;
74335;SDS011;62755;-33.398;-70.572;2023-06-14T01:49:15;85.03;;;43.78;;
74335;SDS011;62755;-33.398;-70.572;2023-06-14T01:52:05;78.65;;;43.67;;
74335;SDS011;62755;-33.398;-70.572;2023-06-14T01:54:55;85.50;;;41.85;;
74335;SDS011;62755;-33.398;-70.572;2023-06-14T01:57:45;72.65;;;42.33;;
74335;SDS011;62755;-33.398;-70.572;2023-06-14T02:00:34;89.07;;;49.90;;
74335;SDS011;62755;-33.398;-70.572;2023-06-14T02:03:22;85.03;;;49.45;;
74335;SDS011;62755;-33.398;-70.572;2023-06-14T02:06:11;83.30;;;46.58;;
74335;SDS011;62755;-33.398;-70.572;2023-06-14T02:09:00;85.32;;;49.20;;
74335;SDS011;62755;-33.398;-70.572;2023-06-14T02:11:48;76.80;;;47.97;;
74335;SDS011;62755;-33.398;-70.572;2023-06-14T02:14:39;84.25;;;47.80;;
74335;SDS011;62755;-33.398;-70.572;2023-06-14T02:17:27;95.35;;;46.55;;
74335;SDS011;62755;-33.398;-70.572;2023-06-14T02:20:16;88.65;;;48.83;;
74335;SDS011;62755;-33.398;-70.572;2023-06-14T02:23:04;101.88;;;50.85;;
74335;SDS011;62755;-33.398;-70.572;2023-06-14T02:25:53;103.22;;;53.88;;
74335;SDS011;62755;-33.398;-70.572;2023-06-14T02:28:42;90.13;;;48.03;;
74335;SDS011;62755;-33.398;-70.572;2023-06-14T02:31:32;88.95;;;47.80;;
74335;SDS011;62755;-33.398;-70.572;2023-06-14T02:34:20;105.22;;;50.20;;
74335;SDS011;62755;-33.398;-70.572;2023-06-14T02:37:08;86.40;;;45.28;;
74335;SDS011;62755;-33.398;-70.572;2023-06-14T02:39:59;76.60;;;40.28;;
74335;SDS011;62755;-33.398;-70.572;2023-06-14T02:42:47;72.75;;;40.28;;
74335;SDS011;62755;-33.398;-70.572;2023-06-14T02:45:35;77.07;;;37.90;;
74335;SDS011;62755;-33.398;-70.572;2023-06-14T02:48:25;76.30;;;41.83;;
74335;SDS011;62755;-33.398;-70.572;2023-06-14T02:51:14;63.33;;;36.28;;
74335;SDS011;62755;-33.398;-70.572;2023-06-14T02:54:02;71.18;;;34.50;;
74335;SDS011;62755;-33.398;-70.572;2023-06-14T02:56:50;54.47;;;28.70;;
74335;SDS011;62755;-33.398;-70.572;2023-06-14T02:59:39;37.88;;;19.73;;
74335;SDS011;62755;-33.398;-70.572;2023-06-14T03:02:27;31.50;;;17.70;;
74335;SDS011;62755;-33.398;-70.572;2023-06-14T03:05:17;31.45;;;13.13;;
74335;SDS011;62755;-33.398;-70.572;2023-06-14T03:08:07;38.30;;;19.83;;
74335;SDS011;62755;-33.398;-70.572;2023-06-14T03:10:56;41.50;;;21.73;;
74335;SDS011;62755;-33.398;-70.572;2023-06-14T03:13:44;24.20;;;14.25;;
74335;SDS011;62755;-33.398;-70.572;2023-06-14T03:16:33;30.08;;;10.57;;
74335;SDS011;62755;-33.398;-70.572;2023-06-14T03:19:23;17.25;;;9.07;;
74335;SDS011;62755;-33.398;-70.572;2023-06-14T03:22:13;24.48;;;11.25;;
74335;SDS011;62755;-33.398;-70.572;2023-06-14T03:25:02;23.58;;;9.50;;
74335;SDS011;62755;-33.398;-70.572;2023-06-14T03:27:51;26.10;;;11.15;;
74335;SDS011;62755;-33.398;-70.572;2023-06-14T03:30:39;33.97;;;17.17;;
74335;SDS011;62755;-33.398;-70.572;2023-06-14T03:33:28;33.05;;;15.90;;
74335;SDS011;62755;-33.398;-70.572;2023-06-14T03:36:16;23.10;;;9.57;;
74335;SDS011;62755;-33.398;-70.572;2023-06-14T03:39:07;19.20;;;6.15;;
74335;SDS011;62755;-33.398;-70.572;2023-06-14T03:41:55;20.90;;;7.07;;
74335;SDS011;62755;-33.398;-70.572;2023-06-14T03:44:43;13.82;;;6.00;;
74335;SDS011;62755;-33.398;-70.572;2023-06-14T03:47:32;11.00;;;5.38;;
74335;SDS011;62755;-33.398;-70.572;2023-06-14T03:50:20;10.25;;;4.50;;
74335;SDS011;62755;-33.398;-70.572;2023-06-14T03:53:09;9.55;;;4.60;;
74335;SDS011;62755;-33.398;-70.572;2023-06-14T03:55:59;6.38;;;3.83;;
74335;SDS011;62755;-33.398;-70.572;2023-06-14T03:58:47;10.20;;;3.63;;
74335;SDS011;62755;-33.398;-70.572;2023-06-14T04:01:35;16.92;;;4.03;;
74335;SDS011;62755;-33.398;-70.572;2023-06-14T04:04:24;10.38;;;4.00;;
74335;SDS011;62755;-33.398;-70.572;2023-06-14T04:07:14;14.50;;;8.68;;
74335;SDS011;62755;-33.398;-70.572;2023-06-14T04:10:05;17.45;;;9.88;;
74335;SDS011;62755;-33.398;-70.572;2023-06-14T04:12:56;18.88;;;11.00;;
74335;SDS011;62755;-33.398;-70.572;2023-06-14T04:15:44;27.15;;;16.60;;
74335;SDS011;62755;-33.398;-70.572;2023-06-14T04:18:33;41.22;;;21.20;;
74335;SDS011;62755;-33.398;-70.572;2023-06-14T04:21:21;41.42;;;20.08;;
74335;SDS011;62755;-33.398;-70.572;2023-06-14T04:24:10;41.38;;;22.17;;
74335;SDS011;62755;-33.398;-70.572;2023-06-14T04:26:59;40.60;;;24.52;;
74335;SDS011;62755;-33.398;-70.572;2023-06-14T04:29:49;52.67;;;27.25;;
74335;SDS011;62755;-33.398;-70.572;2023-06-14T04:32:42;57.97;;;27.88;;
74335;SDS011;62755;-33.398;-70.572;2023-06-14T04:35:31;49.30;;;25.80;;
74335;SDS011;62755;-33.398;-70.572;2023-06-14T04:38:21;43.33;;;23.95;;
74335;SDS011;62755;-33.398;-70.572;2023-06-14T04:41:11;42.28;;;23.52;;
74335;SDS011;62755;-33.398;-70.572;2023-06-14T04:44:00;41.58;;;25.17;;
74335;SDS011;62755;-33.398;-70.572;2023-06-14T04:46:50;50.20;;;24.88;;
74335;SDS011;62755;-33.398;-70.572;2023-06-14T04:49:41;45.80;;;24.63;;
74335;SDS011;62755;-33.398;-70.572;2023-06-14T04:52:30;43.58;;;21.17;;
74335;SDS011;62755;-33.398;-70.572;2023-06-14T04:55:19;46.40;;;23.15;;
74335;SDS011;62755;-33.398;-70.572;2023-06-14T04:58:07;48.13;;;23.23;;
74335;SDS011;62755;-33.398;-70.572;2023-06-14T05:00:58;42.15;;;21.65;;
74335;SDS011;62755;-33.398;-70.572;2023-06-14T05:03:49;48.22;;;21.55;;
74335;SDS011;62755;-33.398;-70.572;2023-06-14T05:06:38;34.50;;;20.08;;
74335;SDS011;62755;-33.398;-70.572;2023-06-14T05:12:49;35.22;;;14.75;;
74335;SDS011;62755;-33.398;-70.572;2023-06-14T05:15:38;19.05;;;7.88;;
74335;SDS011;62755;-33.398;-70.572;2023-06-14T05:18:26;17.58;;;5.95;;
74335;SDS011;62755;-33.398;-70.572;2023-06-14T05:21:17;10.35;;;5.10;;
74335;SDS011;62755;-33.398;-70.572;2023-06-14T05:24:05;10.85;;;4.35;;
74335;SDS011;62755;-33.398;-70.572;2023-06-14T05:26:54;12.23;;;4.13;;
74335;SDS011;62755;-33.398;-70.572;2023-06-14T05:29:43;7.95;;;3.42;;
74335;SDS011;62755;-33.398;-70.572;2023-06-14T05:32:31;5.32;;;2.60;;
74335;SDS011;62755;-33.398;-70.572;2023-06-14T05:35:20;7.10;;;3.25;;
74335;SDS011;62755;-33.398;-70.572;2023-06-14T05:38:11;9.10;;;2.90;;
74335;SDS011;62755;-33.398;-70.572;2023-06-14T05:40:59;11.05;;;3.33;;
74335;SDS011;62755;-33.398;-70.572;2023-06-14T05:43:47;13.73;;;3.35;;
74335;SDS011;62755;-33.398;-70.572;2023-06-14T05:46:36;12.48;;;2.63;;
74335;SDS011;62755;-33.398;-70.572;2023-06-14T05:49:25;8.35;;;3.28;;
74335;SDS011;62755;-33.398;-70.572;2023-06-14T05:52:15;6.22;;;2.95;;
74335;SDS011;62755;-33.398;-70.572;2023-06-14T05:55:05;6.40;;;2.75;;
74335;SDS011;62755;-33.398;-70.572;2023-06-14T05:57:54;5.65;;;3.03;;
74335;SDS011;62755;-33.398;-70.572;2023-06-14T06:00:42;9.48;;;3.42;;
74335;SDS011;62755;-33.398;-70.572;2023-06-14T06:03:30;7.55;;;2.88;;
74335;SDS011;62755;-33.398;-70.572;2023-06-14T06:06:19;5.53;;;2.97;;
74335;SDS011;62755;-33.398;-70.572;2023-06-14T06:09:07;5.72;;;2.65;;
74335;SDS011;62755;-33.398;-70.572;2023-06-14T06:11:57;6.38;;;2.90;;
74335;SDS011;62755;-33.398;-70.572;2023-06-14T06:14:46;8.25;;;3.85;;
74335;SDS011;62755;-33.398;-70.572;2023-06-14T06:17:34;8.25;;;3.03;;
74335;SDS011;62755;-33.398;-70.572;2023-06-14T06:20:23;7.35;;;3.20;;
74335;SDS011;62755;-33.398;-70.572;2023-06-14T06:23:14;6.45;;;2.53;;
74335;SDS011;62755;-33.398;-70.572;2023-06-14T06:26:03;6.47;;;3.60;;
74335;SDS011;62755;-33.398;-70.572;2023-06-14T06:28:53;8.95;;;4.38;;
74335;SDS011;62755;-33.398;-70.572;2023-06-14T06:31:43;8.93;;;3.80;;
74335;SDS011;62755;-33.398;-70.572;2023-06-14T06:34:31;13.60;;;4.35;;
74335;SDS011;62755;-33.398;-70.572;2023-06-14T06:37:21;12.20;;;6.15;;
74335;SDS011;62755;-33.398;-70.572;2023-06-14T06:40:10;19.20;;;8.45;;
74335;SDS011;62755;-33.398;-70.572;2023-06-14T06:42:58;17.42;;;8.45;;
74335;SDS011;62755;-33.398;-70.572;2023-06-14T06:45:48;17.80;;;8.93;;
74335;SDS011;62755;-33.398;-70.572;2023-06-14T06:48:36;19.50;;;8.65;;
74335;SDS011;62755;-33.398;-70.572;2023-06-14T06:51:25;20.00;;;8.23;;
74335;SDS011;62755;-33.398;-70.572;2023-06-14T06:54:13;17.77;;;7.75;;
74335;SDS011;62755;-33.398;-70.572;2023-06-14T06:57:02;20.95;;;6.90;;
74335;SDS011;62755;-33.398;-70.572;2023-06-14T06:59:50;9.57;;;5.28;;
74335;SDS011;62755;-33.398;-70.572;2023-06-14T07:02:40;11.68;;;5.22;;
74335;SDS011;62755;-33.398;-70.572;2023-06-14T07:05:29;12.35;;;3.00;;
74335;SDS011;62755;-33.398;-70.572;2023-06-14T07:08:18;13.65;;;3.75;;
74335;SDS011;62755;-33.398;-70.572;2023-06-14T07:11:06;6.38;;;3.03;;
74335;SDS011;62755;-33.398;-70.572;2023-06-14T07:13:55;11.13;;;3.45;;
74335;SDS011;62755;-33.398;-70.572;2023-06-14T07:16:43;9.43;;;3.13;;
74335;SDS011;62755;-33.398;-70.572;2023-06-14T07:19:34;7.47;;;3.35;;
74335;SDS011;62755;-33.398;-70.572;2023-06-14T07:22:22;12.00;;;3.00;;
74335;SDS011;62755;-33.398;-70.572;2023-06-14T07:25:11;7.25;;;2.50;;
74335;SDS011;62755;-33.398;-70.572;2023-06-14T07:28:00;4.60;;;2.75;;
74335;SDS011;62755;-33.398;-70.572;2023-06-14T07:30:48;7.22;;;2.72;;
74335;SDS011;62755;-33.398;-70.572;2023-06-14T07:33:37;17.77;;;4.90;;
74335;SDS011;62755;-33.398;-70.572;2023-06-14T07:36:26;5.25;;;2.60;;
74335;SDS011;62755;-33.398;-70.572;2023-06-14T07:39:15;9.73;;;2.45;;
74335;SDS011;62755;-33.398;-70.572;2023-06-14T07:42:03;8.00;;;2.47;;
74335;SDS011;62755;-33.398;-70.572;2023-06-14T07:44:52;5.68;;;2.65;;
74335;SDS011;62755;-33.398;-70.572;2023-06-14T07:47:41;4.78;;;2.78;;
74335;SDS011;62755;-33.398;-70.572;2023-06-14T07:50:29;8.15;;;4.22;;
74335;SDS011;62755;-33.398;-70.572;2023-06-14T07:53:19;11.63;;;4.00;;
74335;SDS011;62755;-33.398;-70.572;2023-06-14T07:56:07;10.20;;;4.45;;
74335;SDS011;62755;-33.398;-70.572;2023-06-14T07:58:56;13.93;;;6.07;;
74335;SDS011;62755;-33.398;-70.572;2023-06-14T08:01:44;15.65;;;5.07;;
74335;SDS011;62755;-33.398;-70.572;2023-06-14T08:04:33;20.52;;;11.45;;
74335;SDS011;62755;-33.398;-70.572;2023-06-14T08:07:22;29.48;;;12.30;;
74335;SDS011;62755;-33.398;-70.572;2023-06-14T08:10:12;26.90;;;12.82;;
74335;SDS011;62755;-33.398;-70.572;2023-06-14T08:13:00;27.48;;;13.75;;
74335;SDS011;62755;-33.398;-70.572;2023-06-14T08:15:49;28.10;;;12.82;;
74335;SDS011;62755;-33.398;-70.572;2023-06-14T08:18:37;31.02;;;12.93;;
74335;SDS011;62755;-33.398;-70.572;2023-06-14T08:21:25;28.95;;;11.93;;
74335;SDS011;62755;-33.398;-70.572;2023-06-14T08:24:15;16.00;;;7.95;;
74335;SDS011;62755;-33.398;-70.572;2023-06-14T08:27:06;10.85;;;5.28;;
74335;SDS011;62755;-33.398;-70.572;2023-06-14T08:29:54;10.40;;;4.50;;
74335;SDS011;62755;-33.398;-70.572;2023-06-14T08:32:43;9.68;;;3.35;;
74335;SDS011;62755;-33.398;-70.572;2023-06-14T08:35:31;10.18;;;2.63;;
74335;SDS011;62755;-33.398;-70.572;2023-06-14T08:38:22;5.00;;;2.17;;
74335;SDS011;62755;-33.398;-70.572;2023-06-14T08:41:11;5.78;;;2.90;;
74335;SDS011;62755;-33.398;-70.572;2023-06-14T08:44:02;4.55;;;1.40;;
74335;SDS011;62755;-33.398;-70.572;2023-06-14T08:46:52;3.15;;;1.20;;
74335;SDS011;62755;-33.398;-70.572;2023-06-14T08:49:42;5.35;;;1.40;;
74335;SDS011;62755;-33.398;-70.572;2023-06-14T08:52:33;6.40;;;1.50;;
74335;SDS011;62755;-33.398;-70.572;2023-06-14T08:55:26;3.15;;;1.58;;
74335;SDS011;62755;-33.398;-70.572;2023-06-14T08:58:15;9.05;;;2.17;;
74335;SDS011;62755;-33.398;-70.572;2023-06-14T09:01:05;2.95;;;1.05;;
74335;SDS011;62755;-33.398;-70.572;2023-06-14T09:03:54;5.18;;;0.90;;
74335;SDS011;62755;-33.398;-70.572;2023-06-14T09:06:43;3.28;;;1.30;;
74335;SDS011;62755;-33.398;-70.572;2023-06-14T09:09:31;5.43;;;1.10;;
74335;SDS011;62755;-33.398;-70.572;2023-06-14T09:12:21;3.80;;;0.90;;
74335;SDS011;62755;-33.398;-70.572;2023-06-14T09:15:10;7.22;;;1.15;;
74335;SDS011;62755;-33.398;-70.572;2023-06-14T09:18:02;2.67;;;1.05;;
74335;SDS011;62755;-33.398;-70.572;2023-06-14T09:20:51;3.15;;;1.00;;
74335;SDS011;62755;-33.398;-70.572;2023-06-14T09:23:41;5.50;;;1.27;;
74335;SDS011;62755;-33.398;-70.572;2023-06-14T09:26:29;6.13;;;1.08;;
74335;SDS011;62755;-33.398;-70.572;2023-06-14T09:29:18;4.40;;;0.88;;
74335;SDS011;62755;-33.398;-70.572;2023-06-14T09:32:07;1.50;;;0.70;;
74335;SDS011;62755;-33.398;-70.572;2023-06-14T09:34:57;1.10;;;0.80;;
74335;SDS011;62755;-33.398;-70.572;2023-06-14T09:37:45;6.13;;;0.90;;
74335;SDS011;62755;-33.398;-70.572;2023-06-14T09:40:35;3.95;;;0.80;;
74335;SDS011;62755;-33.398;-70.572;2023-06-14T09:43:24;4.05;;;0.85;;
74335;SDS011;62755;-33.398;-70.572;2023-06-14T09:46:13;1.55;;;0.73;;
74335;SDS011;62755;-33.398;-70.572;2023-06-14T09:49:02;1.98;;;0.93;;
74335;SDS011;62755;-33.398;-70.572;2023-06-14T09:51:52;2.47;;;1.20;;
74335;SDS011;62755;-33.398;-70.572;2023-06-14T09:54:41;9.40;;;1.30;;
74335;SDS011;62755;-33.398;-70.572;2023-06-14T09:57:30;9.25;;;1.67;;
74335;SDS011;62755;-33.398;-70.572;2023-06-14T10:00:19;5.18;;;1.60;;
74335;SDS011;62755;-33.398;-70.572;2023-06-14T10:03:11;5.78;;;1.52;;
74335;SDS011;62755;-33.398;-70.572;2023-06-14T10:06:00;4.90;;;1.40;;
74335;SDS011;62755;-33.398;-70.572;2023-06-14T10:08:52;6.78;;;1.48;;
74335;SDS011;62755;-33.398;-70.572;2023-06-14T10:11:45;1.88;;;1.00;;
74335;SDS011;62755;-33.398;-70.572;2023-06-14T10:14:33;3.70;;;1.10;;
74335;SDS011;62755;-33.398;-70.572;2023-06-14T10:17:27;3.92;;;1.00;;
74335;SDS011;62755;-33.398;-70.572;2023-06-14T10:20:27;5.22;;;1.50;;
74335;SDS011;62755;-33.398;-70.572;2023-06-14T10:23:17;1.33;;;0.70;;
74335;SDS011;62755;-33.398;-70.572;2023-06-14T10:26:08;4.50;;;0.90;;
74335;SDS011;62755;-33.398;-70.572;2023-06-14T10:28:57;5.07;;;1.00;;
74335;SDS011;62755;-33.398;-70.572;2023-06-14T10:31:47;2.95;;;0.88;;
74335;SDS011;62755;-33.398;-70.572;2023-06-14T10:34:38;5.30;;;1.98;;
74335;SDS011;62755;-33.398;-70.572;2023-06-14T10:37:26;5.47;;;2.45;;
74335;SDS011;62755;-33.398;-70.572;2023-06-14T10:40:24;11.05;;;3.20;;
74335;SDS011;62755;-33.398;-70.572;2023-06-14T10:43:22;4.45;;;1.92;;
74335;SDS011;62755;-33.398;-70.572;2023-06-14T10:46:12;2.97;;;1.38;;
74335;SDS011;62755;-33.398;-70.572;2023-06-14T10:49:00;1.75;;;0.77;;
74335;SDS011;62755;-33.398;-70.572;2023-06-14T10:51:50;2.85;;;0.90;;
74335;SDS011;62755;-33.398;-70.572;2023-06-14T10:54:38;3.30;;;1.13;;
74335;SDS011;62755;-33.398;-70.572;2023-06-14T10:57:43;6.13;;;1.88;;
74335;SDS011;62755;-33.398;-70.572;2023-06-14T11:00:33;7.93;;;3.90;;
74335;SDS011;62755;-33.398;-70.572;2023-06-14T11:06:46;14.38;;;3.95;;
74335;SDS011;62755;-33.398;-70.572;2023-06-14T11:09:52;9.25;;;2.63;;
74335;SDS011;62755;-33.398;-70.572;2023-06-14T11:12:45;5.10;;;2.60;;
74335;SDS011;62755;-33.398;-70.572;2023-06-14T11:15:37;3.33;;;1.88;;
74335;SDS011;62755;-33.398;-70.572;2023-06-14T11:18:26;5.95;;;1.98;;
74335;SDS011;62755;-33.398;-70.572;2023-06-14T11:21:16;6.45;;;3.00;;
74335;SDS011;62755;-33.398;-70.572;2023-06-14T11:24:09;11.52;;;2.60;;
74335;SDS011;62755;-33.398;-70.572;2023-06-14T11:26:57;10.65;;;2.75;;
74335;SDS011;62755;-33.398;-70.572;2023-06-14T11:29:49;8.70;;;2.92;;
74335;SDS011;62755;-33.398;-70.572;2023-06-14T11:32:39;8.50;;;4.18;;
74335;SDS011;62755;-33.398;-70.572;2023-06-14T11:35:28;6.95;;;3.45;;
74335;SDS011;62755;-33.398;-70.572;2023-06-14T11:38:16;8.25;;;3.40;;
74335;SDS011;62755;-33.398;-70.572;2023-06-14T11:41:04;15.50;;;4.07;;
74335;SDS011;62755;-33.398;-70.572;2023-06-14T11:43:53;11.52;;;4.20;;
74335;SDS011;62755;-33.398;-70.572;2023-06-14T11:46:41;10.98;;;2.30;;
74335;SDS011;62755;-33.398;-70.572;2023-06-14T11:49:36;4.32;;;1.70;;
74335;SDS011;62755;-33.398;-70.572;2023-06-14T11:52:24;4.82;;;1.33;;
74335;SDS011;62755;-33.398;-70.572;2023-06-14T11:55:13;3.78;;;1.15;;
74335;SDS011;62755;-33.398;-70.572;2023-06-14T11:58:01;2.08;;;0.80;;
74335;SDS011;62755;-33.398;-70.572;2023-06-14T12:00:50;3.92;;;0.77;;
74335;SDS011;62755;-33.398;-70.572;2023-06-14T12:03:38;5.05;;;1.20;;
74335;SDS011;62755;-33.398;-70.572;2023-06-14T12:06:36;4.60;;;1.10;;
74335;SDS011;62755;-33.398;-70.572;2023-06-14T12:09:25;3.85;;;1.30;;
74335;SDS011;62755;-33.398;-70.572;2023-06-14T12:12:14;6.40;;;1.95;;
74335;SDS011;62755;-33.398;-70.572;2023-06-14T12:15:03;7.60;;;1.90;;
74335;SDS011;62755;-33.398;-70.572;2023-06-14T12:17:52;10.63;;;1.85;;
74335;SDS011;62755;-33.398;-70.572;2023-06-14T12:20:41;4.95;;;1.67;;
74335;SDS011;62755;-33.398;-70.572;2023-06-14T12:23:46;6.00;;;1.60;;
74335;SDS011;62755;-33.398;-70.572;2023-06-14T12:26:37;11.52;;;1.80;;
74335;SDS011;62755;-33.398;-70.572;2023-06-14T12:29:26;6.43;;;1.27;;
74335;SDS011;62755;-33.398;-70.572;2023-06-14T12:32:15;3.72;;;1.58;;
74335;SDS011;62755;-33.398;-70.572;2023-06-14T12:35:03;9.52;;;1.80;;
74335;SDS011;62755;-33.398;-70.572;2023-06-14T12:37:51;7.70;;;1.77;;
74335;SDS011;62755;-33.398;-70.572;2023-06-14T12:40:42;13.02;;;2.42;;
74335;SDS011;62755;-33.398;-70.572;2023-06-14T12:43:30;5.90;;;2.47;;
74335;SDS011;62755;-33.398;-70.572;2023-06-14T12:46:18;14.23;;;3.50;;
74335;SDS011;62755;-33.398;-70.572;2023-06-14T12:49:08;14.88;;;3.63;;
74335;SDS011;62755;-33.398;-70.572;2023-06-14T12:51:56;13.20;;;4.38;;
74335;SDS011;62755;-33.398;-70.572;2023-06-14T12:54:45;15.30;;;7.20;;
74335;SDS011;62755;-33.398;-70.572;2023-06-14T12:57:35;19.58;;;5.80;;
74335;SDS011;62755;-33.398;-70.572;2023-06-14T13:00:24;13.25;;;3.47;;
74335;SDS011;62755;-33.398;-70.572;2023-06-14T13:03:13;13.70;;;3.83;;
74335;SDS011;62755;-33.398;-70.572;2023-06-14T13:06:01;8.98;;;2.50;;
74335;SDS011;62755;-33.398;-70.572;2023-06-14T13:08:50;15.95;;;2.80;;
74335;SDS011;62755;-33.398;-70.572;2023-06-14T13:11:40;8.52;;;3.00;;
74335;SDS011;62755;-33.398;-70.572;2023-06-14T13:14:33;6.40;;;2.53;;
74335;SDS011;62755;-33.398;-70.572;2023-06-14T13:17:21;14.70;;;3.67;;
74335;SDS011;62755;-33.398;-70.572;2023-06-14T13:20:10;13.77;;;3.90;;
74335;SDS011;62755;-33.398;-70.572;2023-06-14T13:22:58;7.22;;;3.35;;
74335;SDS011;62755;-33.398;-70.572;2023-06-14T13:25:49;12.55;;;3.63;;
74335;SDS011;62755;-33.398;-70.572;2023-06-14T13:28:37;8.05;;;2.88;;
74335;SDS011;62755;-33.398;-70.572;2023-06-14T13:31:27;8.77;;;3.13;;
74335;SDS011;62755;-33.398;-70.572;2023-06-14T13:34:16;11.25;;;3.20;;
74335;SDS011;62755;-33.398;-70.572;2023-06-14T13:37:05;16.10;;;4.88;;
74335;SDS011;62755;-33.398;-70.572;2023-06-14T13:39:54;15.27;;;3.67;;
74335;SDS011;62755;-33.398;-70.572;2023-06-14T13:42:43;17.92;;;5.07;;
74335;SDS011;62755;-33.398;-70.572;2023-06-14T13:45:31;23.25;;;6.10;;
74335;SDS011;62755;-33.398;-70.572;2023-06-14T13:48:21;13.50;;;4.25;;
74335;SDS011;62755;-33.398;-70.572;2023-06-14T13:51:10;13.57;;;3.38;;
74335;SDS011;62755;-33.398;-70.572;2023-06-14T13:53:58;13.02;;;3.00;;
74335;SDS011;62755;-33.398;-70.572;2023-06-14T13:56:47;17.23;;;4.05;;
74335;SDS011;62755;-33.398;-70.572;2023-06-14T13:59:35;18.92;;;4.90;;
74335;SDS011;62755;-33.398;-70.572;2023-06-14T14:02:23;15.80;;;3.65;;
74335;SDS011;62755;-33.398;-70.572;2023-06-14T14:05:14;8.32;;;3.55;;
74335;SDS011;62755;-33.398;-70.572;2023-06-14T14:08:02;15.15;;;2.85;;
74335;SDS011;62755;-33.398;-70.572;2023-06-14T14:10:50;14.85;;;3.80;;
74335;SDS011;62755;-33.398;-70.572;2023-06-14T14:13:39;17.25;;;3.60;;
74335;SDS011;62755;-33.398;-70.572;2023-06-14T14:16:28;21.17;;;4.70;;
74335;SDS011;62755;-33.398;-70.572;2023-06-14T14:19:17;16.33;;;4.95;;
74335;SDS011;62755;-33.398;-70.572;2023-06-14T14:22:07;21.40;;;5.03;;
74335;SDS011;62755;-33.398;-70.572;2023-06-14T14:24:56;23.60;;;6.40;;
74335;SDS011;62755;-33.398;-70.572;2023-06-14T14:27:44;18.50;;;6.25;;
74335;SDS011;62755;-33.398;-70.572;2023-06-14T14:30:32;27.52;;;6.60;;
74335;SDS011;62755;-33.398;-70.572;2023-06-14T14:33:21;25.55;;;6.93;;
74335;SDS011;62755;-33.398;-70.572;2023-06-14T14:36:09;27.92;;;7.22;;
74335;SDS011;62755;-33.398;-70.572;2023-06-14T14:38:59;30.38;;;9.07;;
74335;SDS011;62755;-33.398;-70.572;2023-06-14T14:41:48;27.55;;;9.23;;
74335;SDS011;62755;-33.398;-70.572;2023-06-14T14:44:36;31.67;;;9.05;;
74335;SDS011;62755;-33.398;-70.572;2023-06-14T14:47:24;30.67;;;8.73;;
74335;SDS011;62755;-33.398;-70.572;2023-06-14T14:50:12;24.25;;;6.82;;
74335;SDS011;62755;-33.398;-70.572;2023-06-14T14:53:02;20.33;;;6.32;;
74335;SDS011;62755;-33.398;-70.572;2023-06-14T14:55:52;25.67;;;6.30;;
74335;SDS011;62755;-33.398;-70.572;2023-06-14T14:58:40;22.38;;;6.63;;
74335;SDS011;62755;-33.398;-70.572;2023-06-14T15:01:29;26.38;;;7.00;;
74335;SDS011;62755;-33.398;-70.572;2023-06-14T15:04:17;28.17;;;7.60;;
74335;SDS011;62755;-33.398;-70.572;2023-06-14T15:07:06;30.30;;;7.93;;
74335;SDS011;62755;-33.398;-70.572;2023-06-14T15:09:55;23.60;;;7.70;;
74335;SDS011;62755;-33.398;-70.572;2023-06-14T15:12:45;25.63;;;7.15;;
74335;SDS011;62755;-33.398;-70.572;2023-06-14T15:15:33;22.13;;;6.72;;
74335;SDS011;62755;-33.398;-70.572;2023-06-14T15:18:22;19.02;;;7.03;;
74335;SDS011;62755;-33.398;-70.572;2023-06-14T15:21:10;24.40;;;6.88;;
74335;SDS011;62755;-33.398;-70.572;2023-06-14T15:23:59;30.00;;;7.78;;
74335;SDS011;62755;-33.398;-70.572;2023-06-14T15:26:47;25.55;;;8.10;;
74335;SDS011;62755;-33.398;-70.572;2023-06-14T15:29:37;33.70;;;8.60;;
74335;SDS011;62755;-33.398;-70.572;2023-06-14T15:32:26;37.13;;;8.75;;
74335;SDS011;62755;-33.398;-70.572;2023-06-14T15:35:15;25.27;;;9.85;;
74335;SDS011;62755;-33.398;-70.572;2023-06-14T15:38:03;26.58;;;9.20;;
74335;SDS011;62755;-33.398;-70.572;2023-06-14T15:40:52;23.35;;;9.55;;
74335;SDS011;62755;-33.398;-70.572;2023-06-14T15:43:40;28.10;;;10.20;;
74335;SDS011;62755;-33.398;-70.572;2023-06-14T15:46:30;38.85;;;11.95;;
74335;SDS011;62755;-33.398;-70.572;2023-06-14T15:49:19;26.75;;;12.85;;
74335;SDS011;62755;-33.398;-70.572;2023-06-14T15:52:07;29.95;;;12.52;;
74335;SDS011;62755;-33.398;-70.572;2023-06-14T15:54:55;32.42;;;12.48;;
74335;SDS011;62755;-33.398;-70.572;2023-06-14T15:57:44;30.65;;;12.93;;
74335;SDS011;62755;-33.398;-70.572;2023-06-14T16:00:32;39.15;;;12.82;;
74335;SDS011;62755;-33.398;-70.572;2023-06-14T16:03:22;28.30;;;13.23;;
74335;SDS011;62755;-33.398;-70.572;2023-06-14T16:06:11;34.05;;;13.60;;
74335;SDS011;62755;-33.398;-70.572;2023-06-14T16:09:00;39.33;;;14.75;;